CheckWX is a tool to help pilots better visualize weather data.  It is not intended as a substitute for an official pre-flight weather briefing.

03:11:35 UTC

KIDA TAF
Idaho Falls Regional Airport
Idaho Falls, Idaho, USA
KIDA 060520Z 0606/0706 13008KT P6SM -SHRA OVC040 FM060800 20010KT P6SM VCSH SCT040 BKN080 TEMPO 0608/0612 -SHRA OVC040 FM061600 21010KT P6SM -SHRA OVC040 FM061900 23015KT P6SM -SHRA VCTS OVC040CB FM070300 19008KT P6SM -SHRA OVC040

Apr-6@
06:00 UTC

Apr-6 @ 06:00 UTC

Apr-6@
08:00 UTC

Apr-6 @ 08:00 UTC

TAF KIDA 060520Z 0606/0706 13008KT P6SM -SHRA OVC040

Expired

Wind
  • 130° at 8 KTS
Conditions
Light Showers, Rain
Cloud Levels
  • Overcast at 4,000' AGL

Apr-6@
08:00 UTC

Apr-6 @ 08:00 UTC

Apr-6@
12:00 UTC

Apr-6 @ 12:00 UTC

TEMPO 0608/0612 -SHRA OVC040

Expired

Conditions
Light Showers, Rain
Cloud Levels
  • Overcast at 4,000' AGL

Apr-6@
08:00 UTC

Apr-6 @ 08:00 UTC

Apr-6@
16:00 UTC

Apr-6 @ 16:00 UTC

FM060800 20010KT P6SM VCSH SCT040 BKN080

Expired

Wind
  • 200° at 10 KTS
Conditions
Area Showers
Cloud Levels
  • Scattered at 4,000' AGL
  • Broken at 8,000' AGL

Apr-6@
16:00 UTC

Apr-6 @ 16:00 UTC

Apr-6@
19:00 UTC

Apr-6 @ 19:00 UTC

FM061600 21010KT P6SM -SHRA OVC040

Expired

Wind
  • 210° at 10 KTS
Conditions
Light Showers, Rain
Cloud Levels
  • Overcast at 4,000' AGL

Apr-6@
19:00 UTC

Apr-6 @ 19:00 UTC

Apr-7@
03:00 UTC

Apr-7 @ 03:00 UTC

FM061900 23015KT P6SM -SHRA VCTS OVC040CB

Expired

Wind
  • 230° at 15 KTS
Conditions
Light Showers, Rain, Area Thunderstorm
Cloud Levels
  • Overcast at 4,000' AGL

Apr-7@
03:00 UTC

Apr-7 @ 03:00 UTC

Apr-7@
06:00 UTC

Apr-7 @ 06:00 UTC

FM070300 19008KT P6SM -SHRA OVC040

From

From Standard forecast or significant change

Wind
  • 190° at 8 KTS
Conditions
Light Showers, Rain
Cloud Levels
  • Overcast at 4,000' AGL